Terminal Aerodrome Forecast
Issued by NWS

Home | Current Version | Previous Version | Text Only | Print | Product List | Glossary On
Versions: 1 2 3 4 5 6 7 8 9 10 11 12 13 14 15 16 17
000
FTUS41 KLWX 292336
TAFMTN
TAF
KMTN 292336Z 3000/3024 18010KT P6SM SCT050
     FM300700 19011KT P6SM BKN045
     FM301200 20010KT 3SM BR BKN050
     FM301400 20011KT P6SM BKN050
     FM301900 20011KT P6SM -SHRA VCTS BKN040CB
     FM302100 24007KT P6SM -SHRA VCTS BKN040CB
     FM302200 26006KT P6SM BKN050
      AMD NOT SKED 3002/3012=

USA.gov is the U.S. government's official web portal to all federal, state and local government web resources and services.